Nearby METAR Reports

 

KSJC - San Jose, California, USA
Distance from station: NE 9mi, 14km
Updated: Mon, 24-Sep-2018 10:53am CDT
Few Clouds
Few Clouds
 Wind from calm
Wind: Calm
Temperature: 59°F , 15°C
Dew Point: 50°F , 10°C
Humidity: 72%
Barometer: 29.88 inHg , 1011.9 hPa
Clouds: Few Clouds
Visibility: 10 miles , 16 km
Cloud details: Few Clouds 900 ft
Few Clouds 10000 ft
2018/09/24 15:53 KSJC 241553Z 00000KT 10SM FEW009 FEW100 15/10 A2988 RMK AO2 SLP117 FU FEW009 T01500100 $
KNUQ - Moffett Nas/Mtn, California, USA
Distance from station: N 9mi, 14km
Updated: Mon, 24-Sep-2018 10:56am CDT
Clear
Clear
 Wind from calm
Wind: Calm
Temperature: 61°F , 16°C
Dew Point: 54°F , 12°C
Humidity: 77%
Barometer: 29.88 inHg , 1011.9 hPa
Clouds: Clear
Visibility: 9 miles , 14 km
2018/09/24 15:56 KNUQ 241556Z 00000KT 9SM CLR 16/12 A2988 RMK AO2 SLP122 T01560122 $
 
KPAO - Palo Alto, California, USA
Distance from station: NNW 14mi, 23km
Updated: Mon, 24-Sep-2018 10:47am CDT
Few Clouds
Few Clouds
 Wind from calm
Wind: Calm
Temperature: 59°F , 15°C
Barometer: 29.89 inHg , 1012.2 hPa
Clouds: Few Clouds
Visibility: 10 miles , 16 km
Cloud details: Few Clouds 3000 ft
2018/09/24 15:47 KPAO 241547Z 00000KT 10SM FEW030 15/ A2989
KRHV - San Jose/Reid, California, USA
Distance from station: ENE 12mi, 19km
Updated: Mon, 24-Sep-2018 10:47am CDT
Clear
Clear
 Wind from calm
Wind: Calm
Temperature: 61°F , 16°C
Dew Point: 46°F , 8°C
Humidity: 59%
Barometer: 29.86 inHg , 1011.2 hPa
Clouds: Clear
Visibility: 10 miles , 16 km
2018/09/24 15:47 KRHV 241547Z 00000KT 10SM SKC 16/08 A2986
 
KOAK - Oakland, California, USA
Distance from station: NNW 31mi, 50km
Updated: Mon, 24-Sep-2018 10:53am CDT
Few Clouds
Few Clouds
 Wind from calm
Wind: Calm
Temperature: 57°F , 14°C
Dew Point: 54°F , 12°C
Humidity: 88%
Barometer: 29.89 inHg , 1012.2 hPa
Clouds: Few Clouds
Visibility: 8 miles , 13 km
Cloud details: Few Clouds 900 ft
Few Clouds 18000 ft
2018/09/24 15:53 KOAK 241553Z 00000KT 8SM FEW009 FEW180 14/12 A2989 RMK AO2 SLP120 T01440122
KSQL - San Carlos Airpo, California, USA
Distance from station: NW 21mi, 34km
Updated: Mon, 24-Sep-2018 10:47am CDT
Few Clouds
Few Clouds
 Wind from varies
Wind: varies 5 mph , 7 km/h
Temperature: 57°F , 14°C
Dew Point: 54°F , 12°C
Humidity: 88%
Barometer: 29.88 inHg , 1011.9 hPa
Clouds: Few Clouds
Visibility: 8 miles , 13 km
Cloud details: Few Clouds 10000 ft
2018/09/24 15:47 KSQL 241547Z VRB04KT 8SM FEW100 14/12 A2988 HZ
 
KSFO - San Francisco, California, USA
Distance from station: NW 30mi, 49km
Updated: Mon, 24-Sep-2018 10:56am CDT
Few Clouds
Few Clouds
 Wind from calm
Wind: Calm
Temperature: 57°F , 14°C
Dew Point: 52°F , 11°C
Humidity: 82%
Barometer: 29.87 inHg , 1011.5 hPa
Clouds: Few Clouds
Visibility: 10 miles , 16 km
Cloud details: Few Clouds 1000 ft
Few Clouds 20000 ft
2018/09/24 15:56 KSFO 241556Z 00000KT 10SM FEW010 FEW200 14/11 A2987 RMK AO2 SLP114 T01440111
KE16 - San Martin, California, USA
Distance from station: ESE 27mi, 43km
Updated: Mon, 24-Sep-2018 10:10am CDT
Clear
Clear
 Wind from calm
Wind: Calm
Temperature: 50°F , 10°C
Dew Point: 45°F , 7°C
Humidity: 82%
Barometer: 29.90 inHg , 1012.5 hPa
Clouds: Clear
Visibility: 9 miles , 14 km
2018/09/24 15:10 KE16 241510Z AUTO 00000KT 9SM CLR 10/07 A2990 RMK AO2
 
KWVI - Watsonville, California, USA
Distance from station: SSE 27mi, 44km
Updated: Mon, 24-Sep-2018 10:53am CDT
Fog, Overcast
Fog, Overcast
 Wind from calm
Wind: Calm
Temperature: 50°F , 10°C
Dew Point: 50°F , 10°C
Humidity: 100%
Barometer: 29.89 inHg , 1012.2 hPa
Summary: Fog
Clouds: Overcast
Visibility: 1/4 mile , 0.4 km
Cloud details: Overcast 200 ft
2018/09/24 15:53 KWVI 241553Z AUTO 00000KT 1/4SM FG VV002 10/10 A2989 RMK AO2 SLP121 T01000100
KHAF - Half Moon Bay, California, USA
Distance from station: WNW 31mi, 50km
Updated: Mon, 24-Sep-2018 10:55am CDT
Fog, Overcast
Fog, Overcast
 Wind from SSE
Wind: SSE 7 mph , 11 km/h
Temperature: 48°F , 9°C
Wind Chill: 45°F , 7°C
Dew Point: 48°F , 9°C
Humidity: 100%
Barometer: 29.89 inHg , 1012.2 hPa
Summary: Fog
Clouds: Overcast
Visibility: 1/4 mile , 0.4 km
Cloud details: Overcast 300 ft
2018/09/24 15:55 KHAF 241555Z AUTO 15006KT 1/4SM FG OVC003 09/09 A2989 RMK AO2
 
KHWD - Hayward, California, USA
Distance from station: N 28mi, 44km
Updated: Mon, 24-Sep-2018 10:54am CDT
Clear
Clear
 Wind from calm
Wind: Calm
Temperature: 61°F , 16°C
Dew Point: 50°F , 10°C
Humidity: 68%
Barometer: 29.88 inHg , 1011.9 hPa
Clouds: Clear
Visibility: 10 miles , 16 km
2018/09/24 15:54 KHWD 241554Z 00000KT 10SM CLR 16/10 A2988 RMK AO2 SLP126 T01560100
KLVK - Livermore, California, USA
Distance from station: NNE 31mi, 51km
Updated: Mon, 24-Sep-2018 10:53am CDT
Clear
Clear
 Wind from calm
Wind: Calm
Temperature: 59°F , 15°C
Dew Point: 36°F , 2°C
Humidity: 42%
Barometer: 29.87 inHg , 1011.5 hPa
Clouds: Clear
Visibility: 10 miles , 16 km
2018/09/24 15:53 KLVK 241553Z 00000KT 10SM CLR 15/02 A2987 RMK AO2 SLP113 T01500022